createdAt,value
2023-04-01T15:00:19.552Z,100089.88
2023-04-01T15:04:43.271Z,100103.88
2023-04-01T15:08:45.103Z,100114.00
2023-04-01T15:13:05.535Z,100131.75
2023-04-01T15:17:36.789Z,100128.34
2023-04-01T15:22:20.474Z,100128.88
2023-04-01T15:26:28.379Z,100139.94
2023-04-01T15:30:48.386Z,100151.66
2023-04-01T15:35:22.400Z,100157.91
2023-04-01T15:40:01.759Z,100165.78
2023-04-01T15:44:04.581Z,100174.13
2023-04-01T15:48:16.129Z,100183.50
2023-04-01T15:52:49.031Z,100192.41
2023-04-01T15:57:15.925Z,100197.88
2023-04-01T16:01:59.663Z,100194.44
2023-04-01T16:06:22.759Z,100213.16
2023-04-01T16:10:34.790Z,100218.66
2023-04-01T16:14:45.775Z,100234.38
2023-04-01T16:19:04.441Z,100247.22
2023-04-01T16:23:26.665Z,100247.44
2023-04-01T16:27:47.832Z,100258.78
2023-04-01T16:32:20.738Z,100257.63
2023-04-01T16:36:28.676Z,100264.16
2023-04-01T16:40:54.390Z,100273.13
2023-04-01T16:45:04.120Z,100288.81
2023-04-01T16:49:24.322Z,100287.16
2023-04-01T16:53:49.624Z,100304.78
2023-04-01T16:57:59.632Z,100304.78
2023-04-01T17:02:01.417Z,100329.78
2023-04-01T17:06:12.226Z,100332.59
2023-04-01T17:10:32.444Z,100332.13
2023-04-01T17:15:12.286Z,100343.13
2023-04-01T17:19:40.094Z,100361.44
2023-04-01T17:24:01.857Z,100365.28
2023-04-01T17:28:18.408Z,100386.59
2023-04-01T17:32:51.516Z,100399.09
2023-04-01T17:37:10.818Z,100407.41
2023-04-01T17:41:53.797Z,100425.41
2023-04-01T17:46:06.628Z,100447.03
2023-04-01T17:50:23.138Z,100447.72
2023-04-01T17:54:43.133Z,100452.69
2023-04-01T17:59:00.670Z,100464.16
2023-04-01T18:03:21.528Z,100467.97
2023-04-01T18:07:46.943Z,100480.81
2023-04-01T18:11:58.984Z,100497.25
2023-04-01T18:16:29.895Z,100507.38
2023-04-01T18:20:40.918Z,100507.06
2023-04-01T18:24:48.274Z,100521.50
2023-04-01T18:29:03.980Z,100528.00
2023-04-01T18:33:19.360Z,100534.47
2023-04-01T18:37:29.625Z,100550.13
2023-04-01T18:41:43.752Z,100566.25
2023-04-01T18:46:13.751Z,100576.25
2023-04-01T18:50:49.429Z,100585.53
2023-04-01T18:55:03.515Z,100602.31
2023-04-01T18:59:11.873Z,100604.28
2023-04-01T19:03:46.406Z,100609.09
2023-04-01T19:07:54.955Z,100629.53
2023-04-01T19:12:10.474Z,100640.31
2023-04-01T19:16:44.940Z,100655.91
2023-04-01T19:20:58.547Z,100656.38
2023-04-01T19:25:32.688Z,100653.03
2023-04-01T19:29:51.419Z,100677.44
2023-04-01T19:33:56.126Z,100680.28
2023-04-01T19:38:10.518Z,100685.06
2023-04-01T19:42:41.594Z,100692.50
2023-04-01T19:46:50.447Z,100697.66
2023-04-01T19:51:10.838Z,100712.97
2023-04-01T19:55:40.953Z,100721.41
2023-04-01T20:00:03.114Z,100721.84
2023-04-01T20:04:32.224Z,100738.63
2023-04-01T20:08:58.333Z,100748.44
2023-04-01T20:13:06.437Z,100758.25
2023-04-01T20:17:17.624Z,100772.53
2023-04-01T20:21:36.179Z,100779.00
2023-04-01T20:25:57.078Z,100781.28
2023-04-01T20:30:29.301Z,100800.63
2023-04-01T20:35:01.937Z,100812.16
2023-04-01T20:39:21.497Z,100820.75
2023-04-01T20:43:44.187Z,100830.66
2023-04-01T20:48:12.911Z,100836.28
2023-04-01T20:52:14.684Z,100854.75
2023-04-01T20:56:29.959Z,100849.56
2023-04-01T21:00:53.322Z,100867.34
2023-04-01T21:05:07.101Z,100877.72
2023-04-01T21:09:54.018Z,100884.59
2023-04-01T21:13:59.445Z,100893.28
2023-04-01T21:18:11.449Z,100888.41
2023-04-01T21:22:20.539Z,100905.63
2023-04-01T21:26:36.292Z,100925.34
2023-04-01T21:30:59.786Z,100923.38
2023-04-01T21:35:07.813Z,100934.88
2023-04-01T21:39:24.608Z,100940.59
2023-04-01T21:43:41.305Z,100943.28
2023-04-01T21:47:45.992Z,100951.63
2023-04-01T21:52:12.493Z,100960.59
2023-04-01T21:56:37.534Z,100976.41
2023-04-01T22:00:48.463Z,100979.31
2023-04-01T22:04:54.309Z,100995.53
2023-04-01T22:09:19.448Z,101000.16
2023-04-01T22:13:31.885Z,101011.75
2023-04-01T22:17:49.916Z,101015.38
2023-04-01T22:22:39.524Z,101022.66
2023-04-01T22:26:59.466Z,101033.28
2023-04-01T22:31:03.316Z,101029.63
2023-04-01T22:35:10.823Z,101040.50
2023-04-01T22:39:54.546Z,101053.09
2023-04-01T22:43:58.384Z,101057.00
2023-04-01T22:48:14.937Z,101069.31
2023-04-01T22:52:22.095Z,101075.59
2023-04-01T22:56:31.633Z,101083.00
2023-04-01T23:00:41.947Z,101079.47
2023-04-01T23:04:48.274Z,101088.97
2023-04-01T23:09:02.475Z,101097.78
2023-04-01T23:13:07.182Z,101113.97
2023-04-01T23:17:34.391Z,101121.50
2023-04-01T23:21:36.153Z,101127.91
2023-04-01T23:26:09.656Z,101130.72
2023-04-01T23:30:39.428Z,101134.63
2023-04-01T23:34:51.986Z,101146.22
2023-04-01T23:38:55.392Z,101149.13
2023-04-01T23:42:57.287Z,101157.34
2023-04-01T23:47:01.993Z,101155.09
2023-04-01T23:51:04.168Z,101169.72
2023-04-01T23:55:12.050Z,101173.59
2023-04-01T23:59:25.020Z,101182.78
